createdAt,value
2019-04-05T00:00:35.041Z,24.97
2019-04-05T00:03:05.276Z,27.13
2019-04-05T00:05:34.895Z,20.10
2019-04-05T00:08:04.657Z,26.27
2019-04-05T00:10:34.327Z,23.17
2019-04-05T00:13:23.266Z,22.30
2019-04-05T00:15:53.040Z,29.60
2019-04-05T00:18:22.533Z,29.40
2019-04-05T00:20:52.175Z,26.03
2019-04-05T00:23:21.767Z,23.30
2019-04-05T00:25:51.349Z,30.93
2019-04-05T00:28:20.921Z,23.80
2019-04-05T00:30:52.124Z,29.27
2019-04-05T00:33:21.727Z,24.33
2019-04-05T00:35:51.248Z,22.77
2019-04-05T00:38:20.899Z,27.30
2019-04-05T00:40:50.571Z,24.57
2019-04-05T00:43:20.145Z,27.40
2019-04-05T00:45:49.838Z,32.33
2019-04-05T00:48:19.335Z,24.60
2019-04-05T00:50:49.169Z,26.57
2019-04-05T00:53:18.720Z,28.27
2019-04-05T00:55:48.312Z,26.83
2019-04-05T00:58:18.011Z,26.60
2019-04-05T01:00:47.611Z,28.10
2019-04-05T01:03:18.802Z,28.60
2019-04-05T01:05:48.603Z,26.63
2019-04-05T01:08:18.243Z,29.60
2019-04-05T01:10:47.835Z,29.83
2019-04-05T01:13:17.635Z,25.57
2019-04-05T01:15:48.868Z,26.70
2019-04-05T01:18:20.340Z,30.53
2019-04-05T01:20:51.416Z,36.70
2019-04-05T01:23:21.546Z,24.70
2019-04-05T01:25:53.886Z,34.10
2019-04-05T01:28:24.296Z,28.47
2019-04-05T01:30:53.885Z,30.90
2019-04-05T01:33:23.450Z,24.77
2019-04-05T01:35:53.182Z,25.20
2019-04-05T01:38:23.007Z,32.67
2019-04-05T01:40:54.548Z,26.23
2019-04-05T01:43:24.374Z,25.80
2019-04-05T01:45:54.441Z,32.23
2019-04-05T01:48:43.270Z,28.43
2019-04-05T01:51:15.684Z,31.50
2019-04-05T01:53:45.650Z,29.40
2019-04-05T01:56:15.251Z,28.03
2019-04-05T01:58:44.902Z,27.87
2019-04-05T02:01:14.666Z,28.47
2019-04-05T02:03:44.420Z,29.97
2019-04-05T02:06:14.219Z,33.33
2019-04-05T02:08:44.037Z,23.60
2019-04-05T02:11:13.630Z,28.83
2019-04-05T02:13:43.230Z,24.13
2019-04-05T02:16:12.802Z,31.67
2019-04-05T02:18:42.599Z,26.00
2019-04-05T02:21:12.462Z,25.43
2019-04-05T02:23:42.207Z,33.33
2019-04-05T02:26:11.918Z,24.87
2019-04-05T02:28:41.661Z,32.53
2019-04-05T02:31:11.384Z,29.77
2019-04-05T02:33:40.977Z,38.00
2019-04-05T02:36:10.686Z,33.70
2019-04-05T02:38:40.439Z,34.20
2019-04-05T02:41:10.259Z,32.70
2019-04-05T02:43:41.286Z,33.43
2019-04-05T02:46:23.637Z,31.73
2019-04-05T02:48:46.352Z,36.83
2019-04-05T02:51:19.054Z,32.70
2019-04-05T02:53:52.685Z,32.20
2019-04-05T02:56:23.154Z,36.13
2019-04-05T02:58:53.571Z,32.23
2019-04-05T03:01:23.211Z,36.30
2019-04-05T03:03:54.403Z,32.00
2019-04-05T03:06:24.834Z,45.30
2019-04-05T03:08:54.427Z,34.70
2019-04-05T03:11:27.064Z,37.90
2019-04-05T03:13:59.934Z,38.80
2019-04-05T03:16:40.686Z,38.40
2019-04-05T03:19:06.930Z,38.27
2019-04-05T03:21:39.519Z,34.17
2019-04-05T03:24:12.255Z,38.20
2019-04-05T03:26:44.865Z,39.63
2019-04-05T03:29:34.269Z,46.00
2019-04-05T03:32:04.396Z,38.33
2019-04-05T03:34:35.990Z,38.77
2019-04-05T03:37:05.874Z,39.63
2019-04-05T03:39:35.630Z,37.60
2019-04-05T03:42:05.631Z,34.47
2019-04-05T03:44:35.892Z,38.80
2019-04-05T03:47:05.960Z,45.20
2019-04-05T03:49:35.759Z,41.80
2019-04-05T03:52:06.196Z,42.50
2019-04-05T03:54:36.131Z,42.37
2019-04-05T03:57:06.497Z,37.20
2019-04-05T03:59:36.456Z,47.93
2019-04-05T04:02:06.182Z,39.63
2019-04-05T04:04:35.926Z,38.77
2019-04-05T04:07:05.721Z,42.77
2019-04-05T04:09:35.482Z,42.97
2019-04-05T04:12:05.424Z,44.77
2019-04-05T04:14:36.332Z,40.93
2019-04-05T04:17:12.599Z,35.00
2019-04-05T04:19:37.328Z,47.53
2019-04-05T04:22:15.761Z,50.20
2019-04-05T04:24:45.876Z,45.47
2019-04-05T04:27:16.018Z,39.87
2019-04-05T04:29:45.607Z,46.30
2019-04-05T04:32:15.694Z,41.53
2019-04-05T04:34:45.903Z,38.63
2019-04-05T04:37:15.660Z,47.03
2019-04-05T04:39:45.564Z,38.47
2019-04-05T04:42:34.593Z,51.63
2019-04-05T04:45:11.833Z,48.07
2019-04-05T04:47:37.095Z,43.57
2019-04-05T04:50:07.464Z,40.27
2019-04-05T04:52:38.702Z,43.83
2019-04-05T04:55:08.779Z,50.40
2019-04-05T04:57:38.756Z,44.57
2019-04-05T05:00:10.723Z,39.30
2019-04-05T05:02:40.780Z,49.73
2019-04-05T05:05:11.373Z,51.63
2019-04-05T05:07:41.451Z,50.50
2019-04-05T05:10:14.751Z,46.37
2019-04-05T05:12:44.540Z,36.40
2019-04-05T05:15:14.577Z,49.17
2019-04-05T05:17:44.174Z,55.00
2019-04-05T05:20:13.738Z,41.33
2019-04-05T05:22:43.719Z,48.57
2019-04-05T05:25:14.338Z,44.33
2019-04-05T05:27:44.174Z,39.57
2019-04-05T05:30:14.104Z,48.30
2019-04-05T05:32:44.004Z,46.70
2019-04-05T05:35:13.745Z,46.47
2019-04-05T05:37:43.621Z,50.53
2019-04-05T05:40:13.384Z,52.63
2019-04-05T05:42:43.118Z,45.83
2019-04-05T05:45:13.305Z,47.43
2019-04-05T05:47:51.566Z,54.80
2019-04-05T05:50:14.819Z,43.53
2019-04-05T05:52:44.461Z,45.37
2019-04-05T05:55:14.210Z,60.73
2019-04-05T05:57:43.847Z,53.60
2019-04-05T06:00:15.247Z,62.77
2019-04-05T06:02:49.615Z,53.10
2019-04-05T06:05:19.218Z,63.87
2019-04-05T06:07:48.902Z,61.47
2019-04-05T06:10:18.640Z,61.90
2019-04-05T06:12:48.142Z,51.93
2019-04-05T06:15:17.926Z,57.03
2019-04-05T06:17:47.451Z,46.30
2019-04-05T06:20:17.238Z,45.20
2019-04-05T06:23:06.070Z,57.67
2019-04-05T06:25:35.758Z,49.60
2019-04-05T06:28:05.338Z,48.80
2019-04-05T06:30:34.954Z,55.77
2019-04-05T06:33:04.599Z,57.43
2019-04-05T06:35:34.214Z,58.70
2019-04-05T06:38:03.794Z,47.93
2019-04-05T06:40:40.548Z,55.10
2019-04-05T06:43:06.815Z,53.30
2019-04-05T06:45:35.929Z,52.43
2019-04-05T06:48:18.397Z,55.73
2019-04-05T06:50:36.947Z,59.60
2019-04-05T06:53:06.554Z,52.33
2019-04-05T06:55:36.259Z,52.73
2019-04-05T06:58:05.830Z,58.10
2019-04-05T07:00:35.421Z,45.37
2019-04-05T07:03:05.063Z,47.53
2019-04-05T07:05:34.734Z,41.57
2019-04-05T07:08:04.446Z,43.60
2019-04-05T07:10:33.983Z,42.60
2019-04-05T07:13:03.782Z,44.23
2019-04-05T07:15:33.554Z,52.67
2019-04-05T07:18:03.152Z,39.07
2019-04-05T07:20:32.870Z,39.17
2019-04-05T07:23:02.742Z,41.70
2019-04-05T07:25:32.376Z,41.73
2019-04-05T07:28:02.340Z,49.33
2019-04-05T07:30:32.719Z,43.37
2019-04-05T07:33:02.539Z,32.77
2019-04-05T07:35:33.834Z,47.40
2019-04-05T07:38:04.745Z,37.27
2019-04-05T07:40:34.462Z,38.23
2019-04-05T07:43:04.406Z,38.00
2019-04-05T07:45:33.910Z,37.37
2019-04-05T07:48:03.759Z,35.13
2019-04-05T07:50:33.601Z,34.70
2019-04-05T07:53:03.214Z,33.00
2019-04-05T07:55:32.733Z,32.43
2019-04-05T07:58:02.555Z,31.10
2019-04-05T08:00:53.010Z,30.33
2019-04-05T08:03:23.756Z,29.63
2019-04-05T08:05:53.666Z,32.50
2019-04-05T08:08:45.916Z,28.27
2019-04-05T08:11:16.322Z,38.70
2019-04-05T08:13:47.848Z,30.53
2019-04-05T08:16:17.594Z,39.27
2019-04-05T08:18:56.992Z,32.83
2019-04-05T08:21:37.811Z,29.40
2019-04-05T08:24:07.424Z,30.17
2019-04-05T08:26:37.207Z,29.60
2019-04-05T08:29:07.415Z,29.27
2019-04-05T08:31:37.335Z,31.73
2019-04-05T08:34:07.040Z,30.37
2019-04-05T08:36:36.804Z,29.53
2019-04-05T08:39:08.099Z,31.93
2019-04-05T08:41:38.188Z,36.20
2019-04-05T08:44:08.102Z,32.60
2019-04-05T08:46:37.791Z,31.15
2019-04-05T08:49:10.849Z,40.10
2019-04-05T08:51:38.762Z,37.27
2019-04-05T08:54:08.366Z,32.87
2019-04-05T08:56:38.419Z,37.30
2019-04-05T08:59:10.635Z,71.70
2019-04-05T09:01:40.130Z,55.67
2019-04-05T09:04:09.818Z,33.13
2019-04-05T09:06:39.415Z,39.43
2019-04-05T09:09:09.211Z,43.20
2019-04-05T09:11:39.099Z,38.60
2019-04-05T09:14:08.745Z,104.67
2019-04-05T09:16:38.611Z,60.87
2019-04-05T09:19:08.117Z,36.63
2019-04-05T09:21:40.516Z,45.77
2019-04-05T09:24:09.111Z,48.40
2019-04-05T09:26:38.775Z,41.70
2019-04-05T09:29:09.476Z,45.13
2019-04-05T09:31:39.275Z,39.17
2019-04-05T09:34:08.794Z,36.27
2019-04-05T09:36:44.266Z,38.63
2019-04-05T09:39:15.892Z,41.27
2019-04-05T09:42:04.690Z,76.90
2019-04-05T09:44:34.272Z,67.67
2019-04-05T09:47:05.242Z,75.57
2019-04-05T09:49:37.059Z,24.97
2019-04-05T09:52:06.714Z,26.10
2019-04-05T09:54:36.250Z,24.30
2019-04-05T09:57:06.233Z,32.90
2019-04-05T09:59:35.895Z,28.60
2019-04-05T10:02:05.866Z,30.10
2019-04-05T10:04:35.479Z,28.70
2019-04-05T10:07:05.219Z,26.40
2019-04-05T10:09:34.848Z,24.93
2019-04-05T10:12:04.458Z,30.90
2019-04-05T10:14:53.494Z,24.57
2019-04-05T10:17:23.157Z,24.40
2019-04-05T10:19:52.744Z,27.43
2019-04-05T10:22:22.449Z,23.57
2019-04-05T10:24:51.935Z,23.67
2019-04-05T10:27:23.032Z,26.37
2019-04-05T10:29:52.746Z,24.40
2019-04-05T10:32:22.427Z,23.60
2019-04-05T10:34:52.302Z,26.10
2019-04-05T10:37:22.031Z,28.10
2019-04-05T10:39:51.703Z,20.57
2019-04-05T10:42:32.750Z,32.80
2019-04-05T10:45:02.420Z,25.37
2019-04-05T10:47:32.151Z,25.13
2019-04-05T10:50:03.391Z,23.43
2019-04-05T10:52:33.099Z,31.93
2019-04-05T10:55:02.690Z,27.30
2019-04-05T10:57:32.253Z,23.67
2019-04-05T11:00:02.002Z,30.60
2019-04-05T11:02:31.635Z,23.53
2019-04-05T11:05:01.470Z,21.43
2019-04-05T11:07:35.438Z,18.90
2019-04-05T11:10:08.314Z,18.80
2019-04-05T11:12:37.963Z,22.40
2019-04-05T11:15:08.922Z,21.93
2019-04-05T11:17:38.558Z,24.47
2019-04-05T11:20:21.207Z,29.43
2019-04-05T11:22:43.100Z,25.13
2019-04-05T11:25:14.183Z,26.00
2019-04-05T11:27:43.895Z,18.73
2019-04-05T11:30:14.276Z,23.80
2019-04-05T11:33:03.306Z,19.77
2019-04-05T11:35:33.175Z,29.27
2019-04-05T11:38:03.321Z,21.10
2019-04-05T11:40:33.476Z,20.43
2019-04-05T11:43:04.463Z,25.00
2019-04-05T11:45:34.892Z,23.80
2019-04-05T11:48:06.119Z,21.60
2019-04-05T11:50:38.650Z,22.40
2019-04-05T11:53:08.535Z,21.60
2019-04-05T11:55:38.383Z,21.97
2019-04-05T11:58:08.028Z,22.03
2019-04-05T12:00:54.441Z,23.07
2019-04-05T12:03:25.675Z,20.57
2019-04-05T12:05:55.478Z,20.03
2019-04-05T12:08:25.113Z,19.50
2019-04-05T12:11:14.200Z,19.47
2019-04-05T12:13:43.820Z,17.90
2019-04-05T12:16:13.509Z,29.30
2019-04-05T12:18:43.183Z,18.93
2019-04-05T12:21:12.923Z,23.70
2019-04-05T12:23:42.595Z,24.37
2019-04-05T12:26:12.364Z,22.03
2019-04-05T12:28:42.210Z,22.57
2019-04-05T12:31:11.899Z,21.97
2019-04-05T12:33:42.116Z,19.10
2019-04-05T12:36:11.921Z,22.30
2019-04-05T12:38:41.574Z,19.90
2019-04-05T12:41:11.602Z,17.13
2019-04-05T12:43:43.670Z,18.63
2019-04-05T12:46:16.111Z,21.30
2019-04-05T12:48:46.341Z,16.00
2019-04-05T12:51:16.224Z,20.00
2019-04-05T12:53:46.074Z,16.97
2019-04-05T12:56:15.831Z,23.00
2019-04-05T12:58:45.410Z,15.97
2019-04-05T13:01:15.023Z,19.83
2019-04-05T13:03:44.680Z,21.90
2019-04-05T13:06:14.954Z,22.93
2019-04-05T13:08:46.454Z,19.13
2019-04-05T13:11:16.291Z,20.90
2019-04-05T13:13:46.042Z,23.73
2019-04-05T13:16:15.598Z,27.03
2019-04-05T13:18:45.284Z,20.37
2019-04-05T13:21:15.549Z,23.90
2019-04-05T13:23:45.808Z,23.27
2019-04-05T13:26:15.503Z,23.70
2019-04-05T13:29:04.883Z,24.47
2019-04-05T13:31:34.698Z,25.57
2019-04-05T13:34:05.979Z,27.87
2019-04-05T13:36:36.068Z,22.80
2019-04-05T13:39:07.670Z,30.37
2019-04-05T13:41:37.356Z,23.33
2019-04-05T13:44:07.199Z,22.80
2019-04-05T13:46:39.098Z,26.63
2019-04-05T13:49:10.325Z,24.63
2019-04-05T13:51:41.592Z,23.83
2019-04-05T13:54:11.375Z,27.17
2019-04-05T13:56:41.440Z,24.20
2019-04-05T13:59:11.797Z,23.00
2019-04-05T14:01:41.581Z,26.87
2019-04-05T14:04:11.199Z,30.30
2019-04-05T14:06:40.866Z,24.40
2019-04-05T14:09:10.895Z,25.27
2019-04-05T14:11:40.652Z,28.03
2019-04-05T14:14:12.231Z,28.20
2019-04-05T14:16:43.050Z,23.83
2019-04-05T14:19:13.155Z,25.13
2019-04-05T14:21:47.464Z,24.93
2019-04-05T14:24:14.170Z,29.53
2019-04-05T14:26:44.324Z,29.63
2019-04-05T14:29:14.035Z,28.03
2019-04-05T14:31:46.503Z,24.40
2019-04-05T14:34:16.125Z,36.90
2019-04-05T14:36:45.992Z,27.93
2019-04-05T14:39:34.970Z,27.10
2019-04-05T14:42:10.024Z,30.53
2019-04-05T14:44:36.386Z,33.03
2019-04-05T14:47:06.065Z,53.73
2019-04-05T14:49:35.748Z,30.33
2019-04-05T14:52:05.422Z,41.13
2019-04-05T14:54:35.113Z,39.20
2019-04-05T14:57:05.984Z,38.20
2019-04-05T14:59:35.946Z,46.40
2019-04-05T15:02:05.672Z,34.70
2019-04-05T15:04:35.331Z,36.90
2019-04-05T15:07:04.950Z,33.60
2019-04-05T15:09:34.757Z,28.53
2019-04-05T15:12:05.363Z,32.90
2019-04-05T15:14:35.141Z,43.83
2019-04-05T15:17:05.015Z,33.07
2019-04-05T15:19:34.771Z,31.53
2019-04-05T15:22:05.861Z,31.50
2019-04-05T15:24:35.982Z,36.80
2019-04-05T15:27:05.918Z,33.23
2019-04-05T15:29:35.767Z,32.53
2019-04-05T15:32:06.090Z,37.17
2019-04-05T15:34:35.673Z,30.70
2019-04-05T15:37:24.675Z,30.63
2019-04-05T15:39:54.286Z,47.77
2019-04-05T15:42:30.701Z,40.50
2019-04-05T15:45:00.259Z,29.80
2019-04-05T15:47:31.957Z,47.73
2019-04-05T15:50:01.359Z,38.37
2019-04-05T15:52:32.051Z,38.17
2019-04-05T15:55:03.758Z,35.60
2019-04-05T15:57:34.184Z,52.43
2019-04-05T16:00:07.090Z,39.77
2019-04-05T16:02:36.912Z,36.30
2019-04-05T16:05:07.673Z,35.47
2019-04-05T16:07:37.409Z,40.97
2019-04-05T16:10:09.612Z,41.67
2019-04-05T16:12:39.450Z,39.33
2019-04-05T16:15:09.994Z,39.70
2019-04-05T16:17:41.217Z,37.20
2019-04-05T16:20:11.541Z,36.90
2019-04-05T16:22:41.346Z,36.00
2019-04-05T16:25:11.032Z,35.53
2019-04-05T16:27:40.676Z,38.53
2019-04-05T16:30:11.542Z,36.67
2019-04-05T16:32:41.462Z,37.33
2019-04-05T16:35:14.428Z,34.37
2019-04-05T16:37:43.167Z,40.37
2019-04-05T16:40:13.709Z,35.87
2019-04-05T16:42:43.735Z,34.60
2019-04-05T16:45:14.003Z,44.20
2019-04-05T16:47:43.712Z,34.60
2019-04-05T16:50:13.479Z,34.47
2019-04-05T16:52:45.263Z,31.00
2019-04-05T16:55:14.579Z,38.93
2019-04-05T16:57:44.372Z,36.37
2019-04-05T17:00:14.449Z,38.67
2019-04-05T17:02:44.106Z,28.43
2019-04-05T17:05:13.914Z,34.20
2019-04-05T17:07:43.707Z,44.40
2019-04-05T17:10:13.511Z,24.70
2019-04-05T17:12:43.686Z,52.10
2019-04-05T17:15:13.699Z,46.30
2019-04-05T17:17:43.500Z,37.43
2019-04-05T17:20:13.404Z,40.27
2019-04-05T17:22:43.181Z,35.83
2019-04-05T17:25:13.065Z,42.77
2019-04-05T17:27:42.902Z,38.93
2019-04-05T17:30:13.849Z,42.50
2019-04-05T17:32:43.867Z,29.73
2019-04-05T17:35:13.663Z,51.83
2019-04-05T17:37:43.291Z,38.87
2019-04-05T17:40:13.609Z,47.40
2019-04-05T17:42:43.419Z,47.87
2019-04-05T17:45:13.713Z,35.07
2019-04-05T17:47:43.526Z,41.07
2019-04-05T17:50:16.219Z,39.53
2019-04-05T17:52:54.955Z,44.03
2019-04-05T17:55:44.454Z,55.20
2019-04-05T17:58:16.350Z,45.00
2019-04-05T18:00:46.356Z,48.33
2019-04-05T18:03:16.080Z,46.67
2019-04-05T18:05:46.001Z,50.43
2019-04-05T18:08:15.758Z,42.40
2019-04-05T18:10:45.397Z,53.27
2019-04-05T18:13:15.177Z,44.00
2019-04-05T18:15:52.293Z,57.67
2019-04-05T18:18:16.202Z,47.03
2019-04-05T18:20:46.038Z,39.00
2019-04-05T18:23:24.932Z,42.40
2019-04-05T18:25:47.219Z,54.53
2019-04-05T18:28:16.764Z,48.60
2019-04-05T18:30:47.310Z,42.00
2019-04-05T18:33:17.418Z,44.40
2019-04-05T18:35:47.433Z,40.37
2019-04-05T18:38:17.074Z,51.27
2019-04-05T18:40:47.038Z,64.03
2019-04-05T18:43:17.004Z,56.03
2019-04-05T18:45:46.641Z,46.30
2019-04-05T18:48:16.374Z,35.07
2019-04-05T18:50:48.518Z,48.60
2019-04-05T18:53:17.541Z,45.83
2019-04-05T18:55:47.461Z,40.17
2019-04-05T18:58:17.133Z,52.83
2019-04-05T19:00:47.110Z,44.83
2019-04-05T19:03:16.863Z,65.17
2019-04-05T19:05:46.696Z,48.77
2019-04-05T19:08:16.749Z,45.73
2019-04-05T19:10:46.936Z,52.33
2019-04-05T19:13:16.744Z,47.67
2019-04-05T19:15:46.828Z,48.93
2019-04-05T19:18:16.487Z,46.00
2019-04-05T19:20:46.339Z,62.30
2019-04-05T19:23:16.139Z,44.63
2019-04-05T19:25:46.704Z,44.67
2019-04-05T19:28:16.822Z,57.97
2019-04-05T19:49:05.403Z,58.67
2019-04-05T19:51:35.101Z,63.13
2019-04-05T19:54:04.825Z,58.77
2019-04-05T19:56:34.879Z,53.63
2019-04-05T19:59:04.722Z,59.73
2019-04-05T20:01:34.484Z,67.27
2019-04-05T20:04:04.291Z,47.63
2019-04-05T20:06:34.134Z,56.80
2019-04-05T20:09:05.581Z,67.07
2019-04-05T20:11:35.337Z,53.20
2019-04-05T20:14:05.192Z,51.57
2019-04-05T20:16:34.960Z,61.93
2019-04-05T20:19:04.835Z,66.90
2019-04-05T20:21:34.717Z,60.77
2019-04-05T20:24:13.719Z,68.73
2019-04-05T20:26:35.843Z,55.27
2019-04-05T20:29:05.599Z,66.67
2019-04-05T20:31:35.229Z,66.50
2019-04-05T20:34:04.931Z,59.67
2019-04-05T20:36:34.519Z,60.13
2019-04-05T20:39:05.959Z,70.97
2019-04-05T20:41:35.640Z,66.30
2019-04-05T20:44:05.441Z,55.90
2019-04-05T20:46:35.091Z,59.83
2019-04-05T20:49:05.102Z,81.00
2019-04-05T20:51:34.702Z,69.20
2019-04-05T20:54:05.584Z,60.17
2019-04-05T20:56:35.180Z,83.03
2019-04-05T20:59:04.936Z,76.23
2019-04-05T21:01:34.723Z,68.83
2019-04-05T21:04:04.423Z,63.90
2019-04-05T21:06:34.084Z,71.00
2019-04-05T21:09:05.713Z,65.70
2019-04-05T21:11:35.529Z,80.90
2019-04-05T21:14:05.271Z,67.23
2019-04-05T21:16:34.966Z,82.47
2019-04-05T21:19:05.079Z,59.17
2019-04-05T21:21:35.158Z,70.23
2019-04-05T21:24:04.971Z,77.30
2019-04-05T21:26:34.714Z,69.23
2019-04-05T21:29:04.549Z,69.43
2019-04-05T21:31:34.170Z,68.03
2019-04-05T21:34:03.884Z,77.57
2019-04-05T21:36:33.393Z,65.90
2019-04-05T21:39:05.190Z,85.90
2019-04-05T21:41:34.949Z,80.50
2019-04-05T21:44:04.973Z,86.60
2019-04-05T21:46:34.601Z,76.60
2019-04-05T21:49:04.271Z,79.30
2019-04-05T21:51:33.915Z,84.97
2019-04-05T21:54:03.694Z,87.43
2019-04-05T21:56:33.378Z,69.00
2019-04-05T21:59:03.106Z,71.20
2019-04-05T22:01:32.931Z,67.00
2019-04-05T22:04:03.181Z,70.23
2019-04-05T22:06:33.153Z,74.70
2019-04-05T22:09:04.626Z,85.70
2019-04-05T22:11:34.552Z,83.27
2019-04-05T22:14:04.595Z,72.17
2019-04-05T22:16:34.235Z,82.93
2019-04-05T22:19:03.985Z,74.53
2019-04-05T22:21:33.635Z,81.50
2019-04-05T22:24:03.227Z,98.77
2019-04-05T22:26:32.801Z,78.33
2019-04-05T22:29:02.399Z,86.93
2019-04-05T22:31:31.963Z,74.63
2019-04-05T22:34:01.622Z,79.57
2019-04-05T22:36:31.225Z,76.53
2019-04-05T22:39:00.892Z,74.33
2019-04-05T22:41:30.711Z,85.63
2019-04-05T22:44:00.266Z,81.80
2019-04-05T22:46:29.947Z,70.73
2019-04-05T22:48:59.609Z,88.97
2019-04-05T22:51:29.354Z,84.10
2019-04-05T22:53:58.967Z,87.87
2019-04-05T22:56:28.602Z,74.40
2019-04-05T22:58:58.268Z,97.87
2019-04-05T23:01:28.012Z,79.30
2019-04-05T23:03:57.602Z,65.97
2019-04-05T23:06:27.205Z,93.30
2019-04-05T23:08:56.875Z,86.00
2019-04-05T23:11:26.574Z,79.93
2019-04-05T23:13:56.094Z,89.60
2019-04-05T23:16:25.603Z,84.70
2019-04-05T23:18:55.125Z,87.77
2019-04-05T23:21:24.679Z,79.73
2019-04-05T23:23:54.460Z,77.13
2019-04-05T23:26:23.997Z,101.37
2019-04-05T23:28:53.685Z,109.50
2019-04-05T23:31:23.354Z,97.10
2019-04-05T23:33:53.151Z,87.00
2019-04-05T23:36:22.664Z,90.30
2019-04-05T23:38:52.262Z,89.20
2019-04-05T23:41:21.839Z,71.40
2019-04-05T23:43:51.531Z,109.53
2019-04-05T23:46:21.246Z,98.93
2019-04-05T23:48:50.960Z,91.03
2019-04-05T23:51:20.671Z,113.47
2019-04-05T23:53:50.261Z,97.27
2019-04-05T23:56:19.975Z,95.50
2019-04-05T23:58:49.681Z,94.23
